Lantana, FL

12:12 AM EST on March 06, 2015 (GMT -0500)
Lantana | Change Station
CLOSE
Current Station
Personal Weather Station
Location: Lantana, FL
Elevation: 16 ft
Nearby Weather Stations

Elev 16 ft 26.58 °N, 80.06 °W | Updated 1 minute ago

Mostly Cloudy
Mostly Cloudy
72.6 °F
Feels Like 72 °F
N
0.0
Wind Variable Wind from South
Gusts 0.0 mph

Today
High -- | Low -- °F
--% Chance of Precip.
Yesterday
High -- | Low -- °F
Precip. -- in
6:39 AM 6:24 PM
Full, 100% visible
Pressure 30.14 in
Visibility 10.0 miles
Clouds Mostly Cloudy 7000 ft
Heat Index 72 °F
Dew Point 67 °F
Humidity 83%
Rainfall in
Snow Depth Not available.
UV 0 out of 12
Pollen 10.90 out of 12
Air Quality Not available.
Flu Activity Not available.
METAR KPBI 060453Z 00000KT 10SM BKN070 24/21 A3014 RMK AO2 SLP207 T02390206 402940233

More Conditions Fewer Conditions

Pressure 30.14 in
Visibility 10.0 miles
Clouds Mostly Cloudy 7000 ft
Heat Index 72 °F
Dew Point 67 °F
Humidity 83%
Rainfall in
Snow Depth Not available.
UV 0 out of 12
Pollen 10.90 out of 12
Air Quality Not available.
Flu Activity Not available.
METAR KPBI 060453Z 00000KT 10SM BKN070 24/21 A3014 RMK AO2 SLP207 T02390206 402940233

More Conditions Fewer Conditions

10-Day Weather Forecast

Almanac

Astronomy

Mar. 06, 2015 Rise Set
Actual Time
Civil Twilight
Nautical Twilight
Astronomical Twilight
Moon
Length of Visible Light
Length of Day
Tomorrow will be .
, % of the Moon is Illuminated

Today's Extremes

State Highs State Lows

Community

WunderPhotos

Upload Photos

1,803,194 photos uploaded!

WunderBlogs® & News

Nearby

Air Quality

  Air Quality AQ Index Pollutant
Not available.

Snow Depth

Station Depth Elevation

Earthquake Activity

City Distance Mag. Time & Date
Minimum magnitude displayed is 2.5.

Coastal Water Temperatures

Place Temperature

Nearby Weather Stations